Latest Weather Observations for Mullion

IDN60801

Issued at 5:32 pm EST Friday 1 July 2022 (issued every 10 minutes, with the page automatically refreshed every 10 minutes)

About weather observations | Map of weather stations | Latest weather observations for NSW | Other Formats
Station Details ID: 250070 Name: MULLION (PCS) Lat: -35.11 Lon: 148.85 Height: 750.0 m

Portable automatic weather stations (PAWS) are operated by other organisations, such as Fire and Emergency Services, and are included here by agreement. Portable stations may be deployed to a location for a short period and their location may be subject to change without notice. Wind observations from these stations are provided from heights of either three (3) or ten (10) metres above ground level (AGL).

Data from the previous 72 hours. | See also: Recent months for locations in New South Wales
Date/Time
EST
Temp
°C
App
Temp
°C
Dew
Point
°C
Rel
Hum
%
Delta-T
°C
Wind Press
QNH
hPa
Press
MSL
hPa
Rain since
9am
mm
Dir  Spd
km/h
Gust
km/h
Spd
kts
Gust
kts
01/05:20pm 5.2 -4.2 5.2 100 0.0 SE 44 52 24 28 1024.8 - 4.6
01/05:10pm 5.2 -3.3 5.2 100 0.0 SE 39 43 21 23 1025.2 - 4.4
01/05:00pm 5.3 -2.8 5.3 100 0.0 SE 37 41 20 22 1025.1 - 4.2
01/04:50pm 5.4 -2.3 5.4 100 0.0 SE 35 41 19 22 1025.2 - 4.2
01/04:40pm 5.5 -2.2 5.5 100 0.0 SE 35 39 19 21 1025.2 - 4.0
01/04:30pm 5.5 -2.2 5.5 100 0.0 SE 35 41 19 22 1025.0 - 4.0
01/04:20pm 5.5 -1.6 5.5 100 0.0 SE 32 33 17 18 1025.5 - 3.8
01/04:10pm 5.6 -1.1 5.5 99 0.0 SE 30 33 16 18 1025.7 - 3.6
01/04:00pm 5.6 -1.7 5.6 100 0.0 SE 33 35 18 19 1025.6 - 3.6
01/03:50pm 5.6 -2.4 5.6 100 0.0 SE 37 39 20 21 1025.3 - 3.4
01/03:40pm 5.6 -2.0 5.6 100 0.0 SE 35 41 19 22 1025.4 - 3.4
01/03:30pm 5.6 -2.8 5.6 100 0.0 SE 39 39 21 21 1025.2 - 3.4
01/03:20pm 5.6 -3.2 5.6 100 0.0 SE 41 43 22 23 1025.2 - 3.2
01/03:10pm 5.5 -2.9 5.5 100 0.0 SE 39 43 21 23 1025.2 - 3.2
01/03:00pm 5.4 -3.0 5.4 100 0.0 SE 39 43 21 23 1024.9 - 3.0
01/02:50pm 5.4 -3.0 5.4 100 0.0 SE 39 41 21 22 1025.2 - 2.8
01/02:40pm 5.2 -2.9 5.2 100 0.0 SSE 37 39 20 21 1024.9 - 2.8
01/02:30pm 5.2 -2.5 5.2 100 0.0 SE 35 37 19 20 1025.1 - 2.6
01/02:20pm 5.2 -2.5 5.2 100 0.0 SE 35 39 19 21 1025.2 - 2.4
01/02:10pm 5.2 -3.3 5.2 100 0.0 SE 39 41 21 22 1025.1 - 2.0
01/02:00pm 5.2 -3.7 5.2 100 0.0 SSE 41 43 22 23 1025.1 - 2.0
01/01:50pm 5.2 -3.3 5.2 100 0.0 SE 39 43 21 23 1025.5 - 1.8
01/01:40pm 5.2 -3.7 5.2 100 0.0 SE 41 43 22 23 1025.3 - 1.6
01/01:30pm 5.2 -3.7 5.2 100 0.0 SE 41 44 22 24 1025.5 - 1.4
01/01:20pm 5.2 -4.1 5.2 100 0.0 SE 43 44 23 24 1025.2 - 1.2
01/01:10pm 5.3 -3.6 5.2 99 0.0 SE 41 43 22 23 1025.4 - 1.0
01/01:00pm 5.3 -4.1 5.3 100 0.0 SE 44 46 24 25 1025.4 - 1.0
01/12:50pm 5.3 -3.6 5.3 100 0.0 SE 41 44 22 24 1025.4 - 0.8
01/12:40pm 5.3 -3.2 5.3 100 0.0 SE 39 41 21 22 1025.8 - 0.8
01/12:30pm 5.3 -2.0 5.3 100 0.0 SE 33 37 18 20 1026.0 - 0.6
01/12:20pm 5.3 -1.5 5.3 100 0.0 SE 30 32 16 17 1026.4 - 0.4
01/12:10pm 5.2 -1.2 5.2 100 0.0 SE 28 30 15 16 1026.6 - 0.4
01/12:00pm 5.1 -0.9 5.1 100 0.0 SE 26 28 14 15 1026.7 - 0.4
01/11:50am 5.0 -1.1 5.0 100 0.0 SE 26 28 14 15 1026.9 - 0.2
01/11:40am 4.9 -1.9 4.9 100 0.0 SE 30 35 16 19 1026.6 - 0.2
01/11:30am 4.9 -2.9 4.9 100 0.0 ESE 35 39 19 21 1026.6 - 0.2
01/11:20am 4.9 -2.5 4.9 100 0.0 ESE 33 41 18 22 1026.7 - 0.2
01/11:10am 4.8 -2.4 4.8 100 0.0 SE 32 33 17 18 1026.7 - 0.2
01/11:00am 4.7 -2.8 4.7 100 0.0 SE 33 37 18 20 1026.4 - 0.2
01/10:50am 4.6 -3.3 4.6 100 0.0 ESE 35 39 19 21 1026.4 - 0.2
01/10:40am 4.6 -2.7 4.6 100 0.0 ESE 32 33 17 18 1026.8 - 0.2
01/10:30am 4.5 -2.4 4.5 100 0.0 ESE 30 35 16 19 1026.7 - 0.2
01/10:20am 4.6 -1.9 4.6 100 0.0 SE 28 30 15 16 1027.0 - 0.2
01/10:10am 4.9 -2.1 4.1 95 0.4 SE 30 32 16 17 1027.1 - 0.2
01/10:00am 4.8 -1.4 4.3 97 0.2 SSE 26 28 14 15 1027.4 - 0.0
01/09:50am 4.8 -0.6 4.3 97 0.2 SSE 22 24 12 13 1027.8 - 0.0
01/09:40am 4.8 -1.0 4.2 96 0.3 SSE 24 26 13 14 1027.8 - 0.0
01/09:30am 4.7 -1.1 4.2 97 0.2 SSE 24 28 13 15 1027.6 - 0.0
01/09:20am 4.7 -2.7 4.0 95 0.3 SSE 32 33 17 18 1027.4 - 0.0
01/09:10am 4.7 -3.7 3.9 95 0.4 SSE 37 43 20 23 1027.2 - 0.0
01/09:00am 4.6 -3.8 3.9 95 0.3 SSE 37 39 20 21 1026.7 - 0.8
01/08:50am 4.5 -3.5 4.0 97 0.2 SSE 35 37 19 20 1027.2 - 0.8
01/08:40am 4.5 -3.8 4.0 97 0.2 SSE 37 39 20 21 1027.2 - 0.8
01/08:30am 4.4 -3.6 3.9 97 0.2 SSE 35 37 19 20 1027.1 - 0.8
01/08:20am 4.5 -4.2 4.1 97 0.2 SSE 39 41 21 22 1027.1 - 0.8
01/08:10am 4.5 -4.2 4.1 97 0.2 SSE 39 41 21 22 1027.1 - 0.8
01/08:00am 4.5 -4.2 4.1 97 0.2 SE 39 41 21 22 1027.1 - 0.8
01/07:50am 4.5 -3.8 4.1 97 0.2 SE 37 39 20 21 1027.2 - 0.6
01/07:40am 4.6 -3.4 4.0 96 0.3 SSE 35 37 19 20 1027.3 - 0.6
01/07:30am 4.7 -3.3 4.0 95 0.3 SSE 35 39 19 21 1027.4 - 0.6
01/07:20am 4.6 -2.8 4.0 96 0.3 SSE 32 35 17 19 1027.2 - 0.6
01/07:10am 4.5 -1.7 4.2 98 0.1 SE 26 30 14 16 1027.4 - 0.4
01/07:00am 4.5 -0.5 4.4 99 0.0 SE 20 22 11 12 1027.6 - 0.4
01/06:50am 4.7 -1.2 4.1 96 0.3 SE 24 26 13 14 1027.4 - 0.2
01/06:40am 4.6 -1.7 4.0 96 0.3 SE 26 28 14 15 1027.0 - 0.2
01/06:30am 4.6 -1.6 4.5 99 0.0 SE 26 30 14 16 1027.0 - 0.2
01/06:20am 4.7 -2.8 4.4 98 0.1 SE 33 41 18 22 1026.7 - 0.2
01/06:10am 4.7 -2.8 4.3 97 0.2 SE 33 35 18 19 1026.3 - 0.2
01/06:00am 4.7 -2.2 4.4 98 0.1 ESE 30 33 16 18 1026.4 - 0.0
01/05:50am 4.5 -2.0 4.5 100 0.0 ESE 28 28 15 15 1026.4 - 0.0
01/05:40am 4.6 -1.9 4.6 100 0.0 ESE 28 30 15 16 1026.0 - 0.0
01/05:30am 4.7 -1.1 4.5 99 0.1 SE 24 26 13 14 1026.0 - 0.0
01/05:20am 4.4 -0.6 4.4 100 0.0 SE 20 22 11 12 1026.4 - 0.0
01/05:10am 4.5 -0.3 4.5 100 0.0 SE 19 22 10 12 1026.3 - 0.0
01/05:00am 4.5 -1.3 4.5 100 0.0 E 24 26 13 14 1026.1 - 0.0
01/04:50am 4.5 -0.9 4.5 100 0.0 E 22 26 12 14 1026.1 - 0.0
01/04:40am 4.6 -0.4 4.6 100 0.0 - 20 20 11 11 1025.9 - 0.0
01/04:30am 4.9 -0.5 4.7 99 0.1 E 22 24 12 13 1025.8 - 0.0
01/04:20am 5.3 -1.2 4.6 95 0.3 ESE 28 30 15 16 1025.3 - 0.0
01/04:10am 5.0 0.1 4.9 99 0.0 ESE 20 24 11 13 1025.5 - 0.0
01/04:00am 5.5 0.2 4.8 95 0.3 S 22 24 12 13 1025.4 - 0.0
01/03:50am 5.2 -0.5 4.8 97 0.2 SSE 24 30 13 16 1025.5 - 0.0
01/03:40am 5.3 -0.8 4.7 96 0.3 SE 26 30 14 16 1025.4 - 0.0
01/03:30am 5.1 -0.3 4.6 97 0.2 ESE 22 24 12 13 1025.7 - 0.0
01/03:20am 5.1 -0.3 4.7 97 0.2 E 22 32 12 17 1025.8 - 0.0
01/03:10am 5.4 0.5 5.0 97 0.2 SE 20 26 11 14 1025.9 - 0.0
01/03:00am 5.3 0.5 4.8 97 0.2 SSE 19 20 10 11 1025.9 - 0.0
01/02:50am 5.4 -0.3 4.8 96 0.3 SSE 24 28 13 15 1025.8 - 0.0
01/02:40am 5.5 -1.0 4.6 94 0.4 SSE 28 32 15 17 1025.8 - 0.0
01/02:30am 5.6 -0.2 4.5 93 0.5 SSE 24 26 13 14 1026.0 - 0.0
01/02:20am 5.6 0.6 4.4 92 0.5 SE 20 22 11 12 1026.1 - 0.0
01/02:10am 5.7 0.7 4.4 91 0.6 SE 20 22 11 12 1026.2 - 0.0
01/02:00am 5.9 0.8 4.3 89 0.7 SE 20 22 11 12 1026.3 - 0.0
01/01:50am 6.0 0.9 4.2 88 0.8 SE 20 22 11 12 1026.3 - 0.0
01/01:40am 6.1 1.0 4.2 88 0.9 SE 20 24 11 13 1026.3 - 0.0
01/01:30am 6.3 0.4 4.1 86 1.0 SSE 24 28 13 15 1026.2 - 0.0
01/01:20am 6.2 1.0 3.8 85 1.1 SE 20 20 11 11 1026.4 - 0.0
01/01:10am 6.3 1.3 3.8 84 1.1 SE 19 20 10 11 1026.3 - 0.0
01/01:00am 6.2 1.6 3.6 83 1.1 SE 17 20 9 11 1026.6 - 0.0
01/12:50am 6.2 1.2 3.6 83 1.1 ESE 19 19 10 10 1026.5 - 0.0
01/12:40am 6.3 1.3 3.6 83 1.2 SE 19 20 10 11 1026.4 - 0.0
01/12:30am 6.4 1.4 3.5 82 1.3 SE 19 20 10 11 1026.4 - 0.0
01/12:20am 6.5 1.4 3.0 78 1.5 SE 19 22 10 12 1026.5 - 0.0
01/12:10am 6.4 0.7 2.9 78 1.5 SE 22 22 12 12 1026.3 - 0.0
01/12:00am 6.4 1.0 2.6 77 1.6 SE 20 20 11 11 1026.4 - 0.0
 
Date/Time
EST
Temp
°C
App
Temp
°C
Dew
Point
°C
Rel
Hum
%
Delta-T
°C
Wind Press
QNH
hPa
Press
MSL
hPa
Rain since
9am
mm
Dir  Spd
km/h
Gust
km/h
Spd
kts
Gust
kts
30/11:50pm 6.2 0.4 2.5 77 1.6 SSE 22 22 12 12 1026.3 - 0.0
30/11:40pm 6.2 0.5 2.7 78 1.5 SSE 22 24 12 13 1026.3 - 0.0
30/11:30pm 6.2 0.5 2.8 79 1.5 SSE 22 24 12 13 1026.4 - 0.0
30/11:20pm 6.3 1.0 2.8 78 1.5 SSE 20 22 11 12 1026.3 - 0.0
30/11:10pm 6.3 1.0 2.8 78 1.5 SSE 20 22 11 12 1026.4 - 0.0
30/11:00pm 6.3 1.5 2.7 78 1.6 SSE 17 19 9 10 1026.5 - 0.0
30/10:50pm 6.2 0.9 2.8 79 1.5 SSE 20 20 11 11 1026.4 - 0.0
30/10:40pm 6.3 0.5 2.3 75 1.7 SSE 22 22 12 12 1026.3 - 0.0
30/10:30pm 6.2 0.5 2.7 78 1.5 SSE 22 24 12 13 1026.3 - 0.0
30/10:20pm 6.2 0.8 2.7 78 1.5 SSE 20 22 11 12 1026.4 - 0.0
30/10:10pm 6.3 0.9 2.3 75 1.7 SSE 20 20 11 11 1026.4 - 0.0
30/10:00pm 6.3 1.1 2.2 75 1.8 SSE 19 20 10 11 1026.3 - 0.0
30/09:50pm 6.1 0.6 2.0 75 1.7 SSE 20 22 11 12 1026.4 - 0.0
30/09:40pm 5.9 0.4 2.0 76 1.7 SSE 20 20 11 11 1026.2 - 0.0
30/09:30pm 6.1 0.7 2.6 78 1.5 SSE 20 24 11 13 1026.3 - 0.0
30/09:20pm 5.8 -0.4 2.0 76 1.6 SE 24 24 13 13 1026.2 - 0.0
30/09:10pm 5.7 -0.5 2.2 78 1.5 SE 24 26 13 14 1026.0 - 0.0
30/09:00pm 5.7 0.0 3.1 83 1.1 SE 22 24 12 13 1026.0 - 0.0
30/08:50pm 5.8 -0.2 3.1 83 1.2 SE 24 24 13 13 1025.8 - 0.0
30/08:40pm 5.7 -0.3 3.6 86 0.9 SE 24 26 13 14 1025.7 - 0.0
30/08:30pm 5.7 0.6 3.9 88 0.8 SE 20 22 11 12 1025.8 - 0.0
30/08:20pm 5.8 0.3 3.9 88 0.8 SE 22 24 12 13 1025.8 - 0.0
30/08:10pm 5.7 0.2 3.9 88 0.8 SE 22 26 12 14 1025.6 - 0.0
30/08:00pm 5.8 0.3 3.9 88 0.8 SE 22 24 12 13 1025.7 - 0.0
30/07:50pm 5.9 0.0 3.9 87 0.9 ESE 24 28 13 15 1025.6 - 0.0
30/07:40pm 5.9 0.0 4.1 88 0.8 ESE 24 28 13 15 1025.4 - 0.0
30/07:30pm 7.0 2.4 3.7 79 1.5 SE 17 26 9 14 1025.1 - 0.0
30/07:20pm 7.2 3.8 4.0 80 1.4 SE 11 13 6 7 1025.3 - 0.0
30/07:10pm 8.0 4.9 3.5 73 2.0 ESE 9 9 5 5 1025.2 - 0.0
30/07:00pm 8.1 5.4 3.6 73 2.0 SE 7 9 4 5 1025.2 - 0.0
30/06:50pm 8.2 5.5 3.6 73 2.1 SSE 7 7 4 4 1025.1 - 0.0
30/06:40pm 8.2 6.1 3.9 74 1.9 SSE 4 6 2 3 1025.0 - 0.0
30/06:30pm 8.4 6.2 3.3 70 2.3 SE 4 4 2 2 1025.0 - 0.0
30/06:20pm 8.3 6.9 3.5 72 2.2 CALM 0 0 0 0 1025.0 - 0.0
30/06:10pm 8.5 7.1 3.5 71 2.3 CALM 0 0 0 0 1025.0 - 0.0
30/06:00pm 8.6 6.8 3.4 70 2.3 SE 2 4 1 2 1024.9 - 0.0
30/05:50pm 8.7 7.3 3.6 70 2.3 CALM 0 0 0 0 1024.8 - 0.0
30/05:40pm 8.7 6.5 3.5 70 2.3 WSW 4 6 2 3 1024.8 - 0.0
30/05:30pm 8.7 6.0 3.6 70 2.3 W 7 9 4 5 1024.7 - 0.0
30/05:20pm 8.6 5.6 4.2 74 2.0 W 9 9 5 5 1024.5 - 0.0
30/05:10pm 8.6 6.1 4.5 75 1.9 W 7 9 4 5 1024.5 - 0.0
30/05:00pm 8.9 6.4 4.6 74 2.0 W 7 7 4 4 1024.4 - 0.0
30/04:50pm 9.3 7.3 4.6 72 2.2 NNW 4 7 2 4 1024.3 - 0.0
30/04:40pm 9.3 7.9 3.5 67 2.6 CALM 0 0 0 0 1024.3 - 0.0
30/04:30pm 9.1 7.7 3.8 69 2.4 CALM 0 2 0 1 1024.2 - 0.0
30/04:20pm 9.2 7.5 3.9 69 2.4 E 2 4 1 2 1024.1 - 0.0
30/04:10pm 9.2 7.1 4.0 70 2.4 E 4 4 2 2 1023.9 - 0.0
30/04:00pm 9.3 7.3 4.2 70 2.4 ENE 4 6 2 3 1024.0 - 0.0
30/03:50pm 9.4 7.4 4.2 70 2.4 E 4 6 2 3 1024.0 - 0.0
30/03:40pm 9.5 7.7 3.7 67 2.6 ESE 2 4 1 2 1024.1 - 0.0
30/03:30pm 9.5 7.7 3.5 66 2.7 ESE 2 4 1 2 1024.0 - 0.0
30/03:20pm 9.6 7.4 3.5 66 2.8 ESE 4 6 2 3 1024.0 - 0.0
30/03:10pm 9.8 7.7 3.8 66 2.8 ESE 4 6 2 3 1024.0 - 0.0
30/02:50pm 10.0 8.6 3.5 64 3.0 CALM 0 2 0 1 1024.1 - 0.0
30/02:40pm 9.9 8.1 3.6 65 2.9 E 2 4 1 2 1024.0 - 0.0
30/02:30pm 9.8 8.0 3.4 64 2.9 ESE 2 4 1 2 1023.9 - 0.0
30/02:20pm 9.8 7.7 3.9 66 2.7 E 4 6 2 3 1024.0 - 0.0
30/02:10pm 9.7 7.1 4.1 68 2.6 E 7 9 4 5 1024.0 - 0.0
30/02:00pm 9.5 6.4 3.8 67 2.6 E 9 11 5 6 1024.0 - 0.0
30/01:50pm 9.5 6.0 3.7 67 2.6 E 11 13 6 7 1024.0 - 0.0
30/01:40pm 9.9 7.4 3.6 65 2.9 ESE 6 9 3 5 1024.2 - 0.0
30/01:30pm 10.4 8.1 3.0 60 3.3 ENE 4 7 2 4 1024.3 - 0.0
30/01:20pm 10.4 7.7 2.6 58 3.5 NE 6 7 3 4 1024.4 - 0.0
30/01:10pm 10.3 7.5 2.3 57 3.6 ENE 6 7 3 4 1024.6 - 0.0
30/01:00pm 10.7 7.8 2.8 58 3.6 ENE 7 9 4 5 1024.7 - 0.0
30/12:50pm 11.0 8.3 2.7 56 3.8 NE 6 9 3 5 1024.7 - 0.0
30/12:40pm 10.6 9.0 4.3 65 2.9 E 2 4 1 2 1024.8 - 0.0
30/12:30pm 10.2 7.7 4.0 65 2.9 E 6 9 3 5 1024.9 - 0.0
30/12:20pm 9.9 7.5 4.2 67 2.6 E 6 7 3 4 1024.9 - 0.0
30/12:10pm 9.9 7.4 4.6 69 2.5 E 7 11 4 6 1025.0 - 0.0
30/12:00pm 10.0 7.6 4.2 67 2.7 ESE 6 7 3 4 1025.2 - 0.0
30/11:50am 9.6 7.1 5.0 73 2.2 E 7 7 4 4 1025.2 - 0.0
30/11:40am 9.2 7.0 5.1 75 1.9 ESE 6 7 3 4 1025.3 - 0.0
30/11:30am 9.1 7.3 5.5 78 1.7 E 4 6 2 3 1025.4 - 0.0
30/11:20am 8.8 7.0 5.5 80 1.6 SE 4 6 2 3 1025.4 - 0.0
30/11:10am 7.8 5.6 5.2 84 1.2 SE 6 7 3 4 1025.4 - 0.0
30/11:00am 7.1 3.9 5.1 87 0.9 SSE 11 13 6 7 1025.3 - 0.0
30/10:50am 7.0 3.5 5.6 91 0.7 SE 13 15 7 8 1025.2 - 0.0
30/10:40am 6.9 3.7 5.1 88 0.8 SSE 11 13 6 7 1025.4 - 0.0
30/10:30am 6.4 2.8 5.0 91 0.6 SE 13 15 7 8 1025.4 - 0.0
30/10:20am 6.7 3.1 5.2 90 0.7 SE 13 15 7 8 1025.5 - 0.0
30/10:10am 6.2 3.0 4.9 91 0.6 ESE 11 13 6 7 1025.5 - 0.0
30/10:00am 6.0 3.1 4.9 93 0.5 SE 9 11 5 6 1025.5 - 0.0
30/09:50am 5.5 1.8 4.6 94 0.4 SSE 13 13 7 7 1025.5 - 0.0
30/09:40am 5.2 1.6 4.8 97 0.2 SSE 13 15 7 8 1025.5 - 0.0
30/09:30am 5.1 2.2 4.7 97 0.2 SSE 9 11 5 6 1025.5 - 0.0
30/09:20am 5.1 1.4 4.5 96 0.3 SSE 13 15 7 8 1025.4 - 0.0
30/09:10am 5.2 1.5 4.4 95 0.4 SSE 13 13 7 7 1025.4 - 0.0
30/09:00am 5.2 1.8 4.2 93 0.4 S 11 11 6 6 1025.4 - 0.0
30/08:50am 5.2 1.5 4.2 93 0.4 S 13 13 7 7 1025.3 - 0.0
30/08:40am 5.0 1.6 4.0 93 0.4 S 11 13 6 7 1025.4 - 0.0
30/08:30am 4.6 1.7 4.4 99 0.1 SSE 9 11 5 6 1025.2 - 0.0
30/08:20am 4.8 1.8 4.3 97 0.2 SSE 9 9 5 5 1025.2 - 0.0
30/08:10am 4.6 1.7 4.4 99 0.1 SSE 9 11 5 6 1025.3 - 0.0
30/08:00am 4.4 1.8 4.4 100 0.0 ESE 7 11 4 6 1025.1 - 0.0
30/07:50am 4.2 1.6 4.2 100 0.0 ESE 7 9 4 5 1024.9 - 0.0
30/07:40am 4.2 1.2 4.2 100 0.0 S 9 9 5 5 1024.8 - 0.0
30/07:30am 4.4 1.5 4.4 100 0.0 S 9 11 5 6 1024.7 - 0.0
30/07:20am 5.7 3.2 4.0 89 0.8 SSW 6 7 3 4 1024.4 - 0.0
30/07:10am 4.8 1.2 4.8 100 0.0 WNW 13 15 7 8 1024.6 - 0.0
30/07:00am 5.3 2.1 5.1 99 0.1 NW 11 13 6 7 1024.8 - 0.0
30/06:50am 6.7 4.3 4.1 83 1.2 SW 6 7 3 4 1024.5 - 0.0
30/06:40am 6.8 3.9 2.7 75 1.8 SSW 7 7 4 4 1024.0 - 0.0
30/06:30am 6.4 3.2 3.3 80 1.4 SW 9 11 5 6 1023.7 - 0.0
30/06:20am 6.1 2.2 3.2 82 1.3 SW 13 15 7 8 1023.5 - 0.0
30/06:10am 4.9 0.9 4.8 99 0.0 W 15 17 8 9 1023.5 - 0.0
30/06:00am 4.5 0.4 4.5 100 0.0 WNW 15 17 8 9 1023.7 - 0.0
30/05:50am 4.4 0.3 4.4 100 0.0 WNW 15 15 8 8 1023.6 - 0.0
30/05:40am 4.6 0.9 4.6 100 0.0 NW 13 15 7 8 1023.5 - 0.0
30/05:30am 5.1 1.4 4.7 97 0.2 WNW 13 13 7 7 1023.1 - 0.0
30/05:20am 5.9 2.6 4.4 90 0.7 WNW 11 13 6 7 1022.9 - 0.0
30/05:10am 6.4 4.0 4.3 86 0.9 W 6 9 3 5 1022.8 - 0.0
30/05:00am 6.6 3.8 3.4 80 1.4 WSW 7 9 4 5 1022.6 - 0.0
30/04:50am 6.3 4.3 4.2 86 0.9 NW 4 9 2 5 1022.6 - 0.0
30/04:40am 6.4 1.9 4.0 85 1.1 W 17 19 9 10 1022.6 - 0.0
30/04:30am 6.4 1.3 4.0 85 1.1 W 20 24 11 13 1022.7 - 0.0
30/04:20am 5.4 0.0 4.5 94 0.4 WNW 22 24 12 13 1022.7 - 0.0
30/04:10am 5.0 1.0 4.8 99 0.1 WNW 15 20 8 11 1022.7 - 0.0
30/04:00am 5.3 1.3 4.7 96 0.3 NW 15 17 8 9 1022.7 - 0.0
30/03:50am 5.9 1.8 4.6 91 0.6 WNW 15 19 8 10 1022.8 - 0.0
30/03:40am 6.1 2.4 4.2 88 0.9 WNW 13 15 7 8 1022.8 - 0.0
30/03:30am 5.7 1.6 4.6 93 0.5 WNW 15 17 8 9 1022.8 - 0.0
30/03:20am 5.9 2.2 4.5 91 0.6 WNW 13 15 7 8 1022.8 - 0.0
30/03:10am 6.0 2.3 4.4 89 0.7 NW 13 15 7 8 1022.8 - 0.0
30/03:00am 5.8 2.1 4.3 90 0.7 WNW 13 15 7 8 1022.8 - 0.0
30/02:50am 5.4 1.8 4.8 96 0.3 NW 13 15 7 8 1022.8 - 0.0
30/02:40am 5.8 1.4 4.7 93 0.5 WNW 17 20 9 11 1022.9 - 0.0
30/02:30am 6.0 1.6 4.6 91 0.6 WNW 17 19 9 10 1022.8 - 0.0
30/02:20am 6.2 2.5 4.5 89 0.8 NW 13 15 7 8 1022.7 - 0.0
30/02:10am 6.2 2.9 4.5 89 0.8 WNW 11 17 6 9 1022.7 - 0.0
30/02:00am 6.3 1.9 4.5 88 0.8 NW 17 19 9 10 1022.6 - 0.0
30/01:50am 6.5 2.8 4.5 87 0.9 WNW 13 17 7 9 1022.6 - 0.0
30/01:40am 6.7 3.0 4.5 86 1.0 NW 13 17 7 9 1022.4 - 0.0
30/01:30am 6.8 2.7 4.4 85 1.1 WNW 15 17 8 9 1022.2 - 0.0
30/01:20am 6.8 2.0 4.5 85 1.0 WNW 19 22 10 12 1022.4 - 0.0
30/01:10am 6.8 2.0 4.5 85 1.0 WNW 19 20 10 11 1022.6 - 0.0
30/01:00am 6.7 1.9 4.5 86 1.0 WNW 19 22 10 12 1022.6 - 0.0
30/12:50am 6.5 1.5 4.4 86 0.9 WNW 20 24 11 13 1022.7 - 0.0
30/12:40am 6.3 0.9 4.3 87 0.9 WNW 22 24 12 13 1022.7 - 0.0
30/12:30am 6.2 0.0 4.4 88 0.8 WNW 26 30 14 16 1022.6 - 0.0
30/12:20am 6.1 -0.1 4.3 88 0.8 WNW 26 28 14 15 1022.8 - 0.0
30/12:10am 5.9 0.1 4.3 89 0.7 WNW 24 26 13 14 1022.8 - 0.0
30/12:00am 5.6 0.2 4.4 92 0.5 WNW 22 26 12 14 1022.9 - 0.0
 
Date/Time
EST
Temp
°C
App
Temp
°C
Dew
Point
°C
Rel
Hum
%
Delta-T
°C
Wind Press
QNH
hPa
Press
MSL
hPa
Rain since
9am
mm
Dir  Spd
km/h
Gust
km/h
Spd
kts
Gust
kts
29/11:50pm 5.6 0.8 4.6 93 0.5 WNW 19 22 10 12 1022.9 - 0.0
29/11:40pm 5.8 0.8 4.5 91 0.6 WNW 20 22 11 12 1022.8 - 0.0
29/11:30pm 5.9 0.9 4.5 91 0.6 W 20 20 11 11 1022.7 - 0.0
29/11:20pm 6.0 0.5 4.1 88 0.8 W 22 24 12 13 1022.9 - 0.0
29/11:10pm 5.5 0.6 4.9 96 0.3 WNW 20 22 11 12 1023.2 - 0.0
29/11:00pm 5.3 0.3 4.8 97 0.2 W 20 22 11 12 1023.1 - 0.0
29/10:50pm 5.1 0.2 5.1 100 0.0 WNW 20 20 11 11 1023.1 - 0.0
29/10:40pm 5.2 0.5 5.2 100 0.0 NW 19 20 10 11 1023.3 - 0.0
29/10:30pm 5.1 0.4 5.1 100 0.0 NW 19 19 10 10 1023.3 - 0.0
29/10:20pm 5.1 0.4 5.1 100 0.0 NW 19 19 10 10 1023.3 - 0.0
29/10:10pm 5.2 0.9 5.1 99 0.0 NW 17 19 9 10 1023.4 - 0.0
29/10:00pm 5.1 1.1 5.0 99 0.0 NW 15 17 8 9 1023.3 - 0.0
29/09:50pm 5.2 1.2 5.0 99 0.1 NW 15 15 8 8 1023.3 - 0.0
29/09:40pm 5.4 1.4 4.8 96 0.3 NW 15 17 8 9 1023.3 - 0.0
29/09:30pm 5.8 1.3 4.4 91 0.6 NW 17 17 9 9 1023.3 - 0.0
29/09:20pm 6.0 1.9 4.2 88 0.8 WNW 15 15 8 8 1023.1 - 0.0
29/09:10pm 5.8 2.1 4.4 91 0.6 WNW 13 15 7 8 1023.1 - 0.0
29/09:00pm 5.7 1.6 4.6 93 0.5 WNW 15 15 8 8 1023.2 - 0.0
29/08:50pm 6.0 1.9 4.5 90 0.7 WNW 15 17 8 9 1023.4 - 0.0
29/08:40pm 6.5 3.1 4.1 85 1.1 W 11 15 6 8 1023.7 - 0.0
29/08:30pm 6.5 2.7 3.9 83 1.2 W 13 13 7 7 1023.1 - 0.0
29/08:20pm 6.4 3.0 4.1 85 1.0 W 11 13 6 7 1023.5 - 0.0
29/08:10pm 6.5 3.1 4.2 85 1.0 WNW 11 15 6 8 1023.5 - 0.0
29/08:00pm 6.6 2.8 3.9 83 1.2 W 13 15 7 8 1023.5 - 0.0
29/07:50pm 6.7 2.6 4.1 83 1.2 WNW 15 17 8 9 1023.5 - 0.0
29/07:40pm 6.8 3.0 4.0 82 1.3 WNW 13 15 7 8 1023.5 - 0.0
29/07:30pm 6.8 2.6 3.9 82 1.3 WNW 15 15 8 8 1023.7 - 0.0
29/07:20pm 6.8 3.8 3.9 82 1.3 WNW 9 11 5 6 1023.6 - 0.0
29/07:10pm 6.8 3.0 4.0 82 1.3 NW 13 13 7 7 1023.5 - 0.0
29/07:00pm 7.0 3.2 4.1 82 1.3 WNW 13 15 7 8 1023.5 - 0.0
29/06:50pm 7.1 4.1 3.9 80 1.4 WNW 9 13 5 7 1023.4 - 0.0
29/06:40pm 6.9 4.4 3.9 81 1.3 WNW 6 7 3 4 1023.3 - 0.0
29/06:30pm 6.9 4.4 3.9 81 1.3 NW 6 7 3 4 1023.5 - 0.0
29/06:20pm 6.9 3.9 4.0 82 1.3 W 9 17 5 9 1023.6 - 0.0
29/06:10pm 7.0 3.5 3.5 78 1.6 WSW 11 17 6 9 1023.4 - 0.0
29/06:00pm 6.9 3.5 3.8 80 1.4 W 11 13 6 7 1023.3 - 0.0
29/05:50pm 6.9 3.1 4.0 82 1.3 WNW 13 13 7 7 1023.3 - 0.0
29/05:40pm 6.9 2.8 4.1 82 1.3 WNW 15 15 8 8 1023.3 - 0.0
29/05:30pm 7.0 3.6 4.1 82 1.3 WNW 11 13 6 7 1023.5 - 0.0
29/05:20pm 7.2 3.4 4.0 80 1.4 WNW 13 19 7 10 1023.5 - 0.0
29/05:10pm 7.3 2.4 3.9 79 1.5 W 19 20 10 11 1023.6 - 0.0
29/05:00pm 7.3 2.4 4.1 80 1.4 WNW 19 20 10 11 1023.4 - 0.0
29/04:50pm 7.4 2.5 4.1 79 1.5 WNW 19 26 10 14 1023.7 - 0.0
29/04:40pm 7.5 2.3 3.8 77 1.7 WNW 20 22 11 12 1023.8 - 0.0
29/04:30pm 7.6 2.5 4.1 78 1.6 WNW 20 24 11 13 1023.5 - 0.0
29/04:20pm 7.6 2.6 4.4 80 1.5 WNW 20 24 11 13 1023.7 - 0.0
29/04:10pm 7.6 2.2 4.3 79 1.5 WNW 22 24 12 13 1023.7 - 0.0
29/04:00pm 7.7 1.9 4.5 80 1.5 WNW 24 30 13 16 1023.8 - 0.0
29/03:50pm 7.7 1.9 4.4 79 1.5 WNW 24 28 13 15 1023.8 - 0.0
29/03:40pm 7.7 0.4 4.5 80 1.5 WNW 32 37 17 20 1024.0 - 0.0
29/03:30pm 7.8 1.3 4.7 81 1.4 WNW 28 33 15 18 1024.0 - 0.0
29/03:20pm 7.8 0.9 4.6 80 1.5 WNW 30 39 16 21 1023.9 - 0.0
29/03:10pm 7.8 0.9 4.5 79 1.5 NW 30 35 16 19 1023.8 - 0.0
29/03:00pm 7.8 0.5 4.6 80 1.5 NW 32 33 17 18 1023.8 - 0.0
29/02:50pm 7.9 1.0 4.7 80 1.5 NW 30 33 16 18 1023.8 - 0.0
29/02:40pm 7.9 1.4 4.8 81 1.4 NW 28 32 15 17 1023.9 - 0.0
29/02:30pm 7.9 2.2 5.1 82 1.3 NW 24 30 13 16 1023.9 - 0.0
29/02:20pm 7.9 1.4 4.8 81 1.4 NW 28 32 15 17 1023.9 - 0.0
29/02:10pm 7.8 0.4 4.8 81 1.4 NW 33 37 18 20 1024.0 - 0.0
29/02:00pm 7.8 1.3 4.8 81 1.4 NW 28 32 15 17 1024.0 - 0.0
29/01:50pm 7.8 1.3 4.9 82 1.3 NW 28 32 15 17 1024.1 - 0.0
29/01:40pm 7.9 0.7 4.9 81 1.4 NW 32 35 17 19 1024.1 - 0.0
29/01:30pm 8.0 2.3 5.0 81 1.4 NW 24 30 13 16 1024.3 - 0.0
29/01:20pm 7.6 2.4 5.3 85 1.1 NW 22 26 12 14 1024.4 - 0.0
29/01:10pm 7.5 2.3 5.3 86 1.0 NW 22 24 12 13 1024.6 - 0.0
29/01:00pm 7.6 3.0 5.6 87 0.9 NW 19 20 10 11 1024.7 - 0.0
29/12:50pm 7.6 2.8 5.4 86 1.0 NW 20 22 11 12 1024.8 - 0.0
29/12:40pm 7.5 2.8 5.0 84 1.2 NW 19 26 10 14 1025.0 - 0.0
29/12:30pm 7.2 2.9 5.3 88 0.9 NW 17 19 9 10 1025.3 - 0.0
29/12:20pm 7.3 2.6 5.3 87 0.9 NW 19 20 10 11 1025.5 - 0.0
29/12:10pm 7.5 2.8 5.1 85 1.1 NW 19 20 10 11 1025.6 - 0.0
29/12:00pm 7.4 3.1 5.2 86 1.0 NW 17 19 9 10 1025.8 - 0.0
29/11:50am 7.2 3.2 4.9 85 1.1 NW 15 19 8 10 1026.1 - 0.0
29/11:40am 6.8 2.4 5.0 88 0.8 NW 17 19 9 10 1026.4 - 0.0
29/11:30am 6.2 1.4 4.4 88 0.8 NW 19 20 10 11 1026.8 - 0.0
29/11:20am 5.8 0.7 4.3 90 0.7 NW 20 22 11 12 1027.0 - 0.0
29/11:10am 5.3 0.2 4.0 91 0.6 WNW 20 24 11 13 1027.1 - 0.0
29/11:00am 4.6 -1.3 3.7 94 0.4 WNW 24 28 13 15 1027.3 - 0.0
29/10:50am 4.5 -1.5 3.6 94 0.4 WNW 24 26 13 14 1027.5 - 0.0
29/10:40am 4.5 -1.5 3.5 93 0.4 WNW 24 26 13 14 1027.5 - 0.0
29/10:30am 4.2 -2.2 3.4 94 0.3 WNW 26 30 14 16 1027.5 - 0.0
29/10:20am 3.8 -3.0 3.0 94 0.3 WNW 28 28 15 15 1027.5 - 0.0
29/10:10am 3.9 -2.6 2.9 93 0.4 WNW 26 28 14 15 1027.7 - 0.0
29/10:00am 3.6 -3.3 2.8 94 0.3 WNW 28 30 15 16 1027.8 - 0.0
29/09:50am 3.7 -3.2 2.6 92 0.5 WNW 28 30 15 16 1027.8 - 0.0
29/09:40am 3.9 -2.6 2.8 92 0.5 WNW 26 30 14 16 1027.9 - 0.0
29/09:30am 4.1 -2.7 2.9 92 0.5 WNW 28 30 15 16 1027.8 - 0.0
29/09:20am 4.1 -2.8 2.3 88 0.8 WNW 28 30 15 16 1027.8 - 0.0
29/09:10am 3.6 -4.1 2.4 92 0.5 WNW 32 32 17 17 1027.7 - 0.0
29/09:00am 2.3 -5.4 2.3 100 0.0 WNW 32 35 17 19 1027.8 - 0.0
29/08:50am 0.1 -7.6 0.1 100 0.0 WNW 30 32 16 17 1027.6 - 0.0
29/08:40am -0.3 -8.0 -0.3 100 0.0 WNW 30 32 16 17 1027.6 - 0.0
29/08:30am -0.2 -6.8 -0.2 100 0.0 WNW 24 28 13 15 1027.7 - 0.0
29/08:20am 0.7 -6.2 0.4 98 0.1 WNW 26 28 14 15 1027.6 - 0.0
29/08:10am 1.8 -5.0 1.1 95 0.3 WNW 26 30 14 16 1027.5 - 0.0
29/08:00am 3.0 -3.3 1.8 92 0.5 WNW 24 26 13 14 1027.5 - 0.0
29/07:50am 3.8 -1.6 2.3 90 0.6 WNW 20 24 11 13 1027.4 - 0.0
29/07:40am 3.5 -1.0 2.3 92 0.5 WNW 15 17 8 9 1027.5 - 0.0
29/07:30am 3.9 -1.5 2.5 91 0.6 W 20 22 11 12 1027.4 - 0.0
29/07:20am 2.8 -3.4 2.0 94 0.3 W 24 28 13 15 1027.5 - 0.0
29/07:10am 1.1 -5.3 1.1 100 0.0 WNW 24 30 13 16 1027.5 - 0.0
29/07:00am 0.7 -5.0 0.6 99 0.0 WNW 20 22 11 12 1027.6 - 0.0
29/06:50am 1.8 -3.9 0.8 93 0.4 W 20 22 11 12 1027.5 - 0.0
29/06:40am 1.0 -5.1 0.6 97 0.2 W 22 24 12 13 1027.5 - 0.0
29/06:30am 1.0 -5.1 0.5 96 0.2 WNW 22 24 12 13 1027.5 - 0.0
29/06:20am 0.9 -4.6 0.8 99 0.0 WNW 19 22 10 12 1027.6 - 0.0
29/06:10am 0.6 -4.9 0.6 100 0.0 WNW 19 19 10 10 1027.5 - 0.0
29/06:00am 0.8 -4.3 0.8 100 0.0 W 17 17 9 9 1027.5 - 0.0
29/05:50am 2.0 -2.7 1.2 94 0.3 W 15 17 8 9 1027.4 - 0.0
29/05:40am 3.4 -1.1 2.1 91 0.5 W 15 15 8 8 1027.3 - 0.0
29/05:30am 3.9 -0.6 2.3 89 0.7 W 15 15 8 8 1027.4 - 0.0
29/05:20am 4.1 0.0 2.3 88 0.8 W 13 15 7 8 1027.3 - 0.0
29/05:10am 4.3 0.6 2.4 87 0.8 W 11 13 6 7 1027.3 - 0.0
29/05:00am 4.0 0.3 2.1 87 0.8 W 11 11 6 6 1027.2 - 0.0
29/04:50am 2.8 -1.1 1.3 90 0.6 W 11 11 6 6 1027.4 - 0.0
29/04:40am 3.0 -0.4 1.8 92 0.5 W 9 9 5 5 1027.4 - 0.0
29/04:30am 2.9 -0.5 1.9 93 0.4 W 9 9 5 5 1027.5 - 0.0
29/04:20am 1.9 -1.7 0.9 93 0.4 W 9 11 5 6 1027.5 - 0.0
29/04:10am 1.7 -2.4 0.0 88 0.7 W 11 11 6 6 1027.7 - 0.0
29/04:00am 1.3 -2.8 -0.3 89 0.6 WNW 11 13 6 7 1027.6 - 0.0
29/03:50am 1.5 -2.5 0.3 92 0.5 WNW 11 13 6 7 1027.6 - 0.0
29/03:40am 1.7 -1.4 1.1 96 0.2 WNW 7 9 4 5 1027.5 - 0.0
29/03:30am 2.5 -0.6 1.2 91 0.5 WNW 7 9 4 5 1027.7 - 0.0
29/03:20am 3.7 0.7 2.0 89 0.7 WNW 7 7 4 4 1027.9 - 0.0
29/03:00am 5.9 2.6 2.2 77 1.6 W 9 9 5 5 1028.3 - 0.0
29/02:50am 5.6 2.6 2.1 78 1.5 W 7 7 4 4 1028.4 - 0.0
29/02:40am 5.7 2.9 1.9 76 1.6 W 6 6 3 3 1028.5 - 0.0
29/02:30am 5.5 3.1 2.0 78 1.5 W 4 7 2 4 1028.6 - 0.0
29/02:20am 5.9 3.5 1.9 75 1.7 W 4 4 2 2 1028.6 - 0.0
29/02:10am 6.3 3.5 2.1 74 1.8 W 6 6 3 3 1028.7 - 0.0
29/02:00am 6.4 3.6 2.1 74 1.8 W 6 6 3 3 1028.7 - 0.0
29/01:50am 6.3 3.3 1.8 73 1.9 WSW 7 9 4 5 1028.8 - 0.0
29/01:40am 6.1 3.0 1.5 72 1.9 WSW 7 9 4 5 1028.8 - 0.0
29/01:30am 6.3 3.4 1.4 71 2.1 W 6 7 3 4 1028.9 - 0.0
29/01:20am 6.2 3.3 1.2 70 2.1 WNW 6 6 3 3 1028.9 - 0.0
29/01:10am 5.9 3.3 1.0 71 2.0 W 4 4 2 2 1029.0 - 0.0
29/01:00am 6.0 3.6 -0.4 63 2.6 WNW 2 4 1 2 1028.9 - 0.0
29/12:50am 6.1 4.2 0.6 68 2.3 CALM 0 0 0 0 1029.0 - 0.0
29/12:40am 5.9 4.0 0.5 68 2.2 CALM 0 2 0 1 1029.0 - 0.0
29/12:30am 6.3 3.9 -0.4 62 2.7 SE 2 4 1 2 1029.0 - 0.0
29/12:20am 6.6 3.9 0.1 63 2.7 SE 4 6 2 3 1029.1 - 0.0
29/12:10am 6.9 4.6 0.6 64 2.6 S 2 6 1 3 1029.2 - 0.0
29/12:00am 7.0 4.8 0.9 65 2.5 S 2 4 1 2 1029.4 - 0.0
 
Date/Time
EST
Temp
°C
App
Temp
°C
Dew
Point
°C
Rel
Hum
%
Delta-T
°C
Wind Press
QNH
hPa
Press
MSL
hPa
Rain since
9am
mm
Dir  Spd
km/h
Gust
km/h
Spd
kts
Gust
kts
28/11:50pm 7.0 4.3 0.1 61 2.8 S 4 4 2 2 1029.5 - 0.0
28/11:40pm 7.0 4.2 -0.3 60 3.0 SSW 4 4 2 2 1029.6 - 0.0
28/11:30pm 7.1 3.8 -0.9 57 3.2 S 6 6 3 3 1029.6 - 0.0
28/11:20pm 7.0 3.6 -0.9 57 3.2 SSE 7 7 4 4 1029.5 - 0.0
28/11:10pm 7.1 3.8 -1.3 55 3.3 SSE 6 7 3 4 1029.6 - 0.0
28/11:00pm 7.0 3.7 -1.5 54 3.3 S 6 7 3 4 1029.9 - 0.0
28/10:50pm 6.9 3.3 -1.8 54 3.4 S 7 9 4 5 1029.8 - 0.0
28/10:40pm 6.7 3.1 -2.0 54 3.4 S 7 9 4 5 1029.8 - 0.0
28/10:30pm 6.5 2.5 -2.1 54 3.3 S 9 9 5 5 1029.8 - 0.0
28/10:20pm 6.0 1.6 -2.2 55 3.1 S 11 11 6 6 1029.7 - 0.0
28/10:10pm 5.3 0.6 -1.8 60 2.7 SSE 13 15 7 8 1029.6 - 0.0
28/10:00pm 5.1 0.1 -1.4 63 2.5 SSE 15 17 8 9 1029.6 - 0.0
28/09:50pm 5.4 0.3 -1.6 60 2.7 SE 15 17 8 9 1029.6 - 0.0
28/09:40pm 5.8 1.5 -1.4 60 2.8 SE 11 11 6 6 1029.6 - 0.0
28/09:30pm 6.1 1.4 -1.7 57 3.0 SE 13 15 7 8 1029.6 - 0.0
28/09:20pm 6.7 2.0 -1.9 54 3.3 SSE 13 15 7 8 1029.7 - 0.0
28/09:10pm 6.7 2.0 -2.0 54 3.4 SSE 13 15 7 8 1029.7 - 0.0
28/09:00pm 6.6 1.5 -1.9 54 3.3 SSE 15 17 8 9 1029.8 - 0.0
28/08:50pm 6.4 1.0 -1.7 56 3.2 SSE 17 17 9 9 1029.7 - 0.0
28/08:40pm 6.4 1.0 -1.6 56 3.1 SSE 17 17 9 9 1029.7 - 0.0
28/08:30pm 6.1 0.7 -1.7 57 3.0 SSE 17 17 9 9 1029.6 - 0.0
28/08:20pm 5.4 0.0 -1.3 62 2.6 SSE 17 19 9 10 1029.6 - 0.0
28/08:10pm 5.9 0.9 -1.1 61 2.8 SSE 15 17 8 9 1029.6 - 0.0
28/08:00pm 6.2 1.1 -2.0 55 3.2 SE 15 17 8 9 1029.8 - 0.0
28/07:50pm 6.0 1.4 -0.9 61 2.7 SSE 13 15 7 8 1029.8 - 0.0
28/07:40pm 5.9 1.7 -1.0 61 2.7 SSE 11 11 6 6 1029.8 - 0.0
28/07:30pm 6.4 1.8 -1.2 58 3.0 SSE 13 13 7 7 1029.9 - 0.0
28/07:20pm 7.3 2.5 -2.3 50 3.7 S 13 13 7 7 1030.0 - 0.0
28/07:10pm 7.2 2.4 -2.2 51 3.6 S 13 13 7 7 1030.0 - 0.0
28/07:00pm 7.1 2.7 -2.1 52 3.6 S 11 11 6 6 1030.0 - 0.0
28/06:50pm 6.8 2.5 -1.7 54 3.3 S 11 13 6 7 1030.0 - 0.0
28/06:40pm 6.4 2.6 -0.9 59 2.9 S 9 11 5 6 1029.9 - 0.0
28/06:30pm 7.1 3.3 -0.8 57 3.2 SSE 9 9 5 5 1029.9 - 0.0
28/06:20pm 7.5 4.6 -1.4 53 3.5 SSE 4 7 2 4 1029.9 - 0.0
28/06:10pm 7.4 5.2 -1.3 54 3.5 CALM 0 2 0 1 1029.9 - 0.0
28/06:00pm 7.5 4.8 -2.4 49 3.8 E 2 4 1 2 1029.8 - 0.0
28/05:50pm 7.6 4.6 -1.6 52 3.6 ESE 4 4 2 2 1029.8 - 0.0
28/05:40pm 7.4 4.4 -1.5 53 3.5 E 4 4 2 2 1029.6 - 0.0

Other formats

Comma delimited format used in spreadsheet applications
http://www.bom.gov.au/fwo/IDN60801/IDN60801.99763.axf

JavaScript Object Notation format (JSON) in row-major order
http://www.bom.gov.au/fwo/IDN60801/IDN60801.99763.json

Data quality

Most of these data are generated automatically and are frequently updated. Quality checks on data are not normally performed. It is possible for incorrect values to appear. Refer to information at About Latest Weather Observations and please check the disclaimer before using these data.